CheckWX is a tool to help pilots better visualize weather data.  It is not intended as a substitute for an official pre-flight weather briefing.

02:10:09 UTC

KLUD METAR
Decatur Municipal Airport
Decatur, Texas, USA
Current

35 mins ago

KLUD 180135Z AUTO 04003KT 7SM CLR 07/M02 A3006 RMK AO2 T00681019
Observed
Feb-18 @ 01:35 UTC
Wind
  • 040° at 3 KTS
Visibility
7 SM
Flight Rules
VFR
Cloud Levels
  • Clear skies
Temperature
C / 45°F
Dewpoint
-2°C / 28°F
Humidity
53%
Altimeter
30.06" Hg
Pressure
1017.92 hPa
Previous

55 mins ago

KLUD 180115Z AUTO 00000KT 10SM CLR 07/M02 A3006 RMK AO2 T00691019
Observed
Feb-18 @ 01:15 UTC
Visibility
10 SM
Flight Rules
VFR
Cloud Levels
  • Clear skies
Temperature
C / 45°F
Dewpoint
-2°C / 28°F
Humidity
53%
Altimeter
30.06" Hg
Pressure
1017.92 hPa
Previous

1 hour ago

KLUD 180055Z AUTO 00000KT 10SM CLR 07/M02 A3004 RMK AO2 T00701019
Observed
Feb-18 @ 00:55 UTC
Visibility
10 SM
Flight Rules
VFR
Cloud Levels
  • Clear skies
Temperature
C / 45°F
Dewpoint
-2°C / 28°F
Humidity
53%
Altimeter
30.04" Hg
Pressure
1017.32 hPa